sensor_id;sensor_type;location;lat;lon;timestamp;P1;durP1;ratioP1;P2;durP2;ratioP2
55601;SDS011;59921;51.332;12.410;2023-09-19T00:01:07;1.25;;;1.05;;
55601;SDS011;59921;51.332;12.410;2023-09-19T00:03:36;1.10;;;1.00;;
55601;SDS011;59921;51.332;12.410;2023-09-19T00:06:03;1.30;;;1.20;;
55601;SDS011;59921;51.332;12.410;2023-09-19T00:08:35;1.40;;;1.13;;
55601;SDS011;59921;51.332;12.410;2023-09-19T00:11:00;1.13;;;1.00;;
55601;SDS011;59921;51.332;12.410;2023-09-19T00:13:28;1.38;;;1.27;;
55601;SDS011;59921;51.332;12.410;2023-09-19T00:15:53;1.40;;;1.00;;
55601;SDS011;59921;51.332;12.410;2023-09-19T00:18:20;1.83;;;1.08;;
55601;SDS011;59921;51.332;12.410;2023-09-19T00:20:47;1.27;;;1.17;;
55601;SDS011;59921;51.332;12.410;2023-09-19T00:23:14;1.13;;;0.90;;
55601;SDS011;59921;51.332;12.410;2023-09-19T00:25:40;1.00;;;0.90;;
55601;SDS011;59921;51.332;12.410;2023-09-19T00:28:07;1.40;;;1.10;;
55601;SDS011;59921;51.332;12.410;2023-09-19T00:30:33;1.52;;;1.20;;
55601;SDS011;59921;51.332;12.410;2023-09-19T00:32:59;1.10;;;1.00;;
55601;SDS011;59921;51.332;12.410;2023-09-19T00:35:26;1.13;;;1.02;;
55601;SDS011;59921;51.332;12.410;2023-09-19T00:37:52;1.10;;;1.00;;
55601;SDS011;59921;51.332;12.410;2023-09-19T00:40:18;1.20;;;1.10;;
55601;SDS011;59921;51.332;12.410;2023-09-19T00:42:45;1.45;;;1.20;;
55601;SDS011;59921;51.332;12.410;2023-09-19T00:45:12;1.77;;;1.00;;
55601;SDS011;59921;51.332;12.410;2023-09-19T00:47:39;1.10;;;1.00;;
55601;SDS011;59921;51.332;12.410;2023-09-19T00:50:06;1.38;;;1.20;;
55601;SDS011;59921;51.332;12.410;2023-09-19T00:52:34;1.15;;;1.00;;
55601;SDS011;59921;51.332;12.410;2023-09-19T00:55:04;1.20;;;0.95;;
55601;SDS011;59921;51.332;12.410;2023-09-19T00:57:32;1.20;;;1.10;;
55601;SDS011;59921;51.332;12.410;2023-09-19T00:59:58;1.25;;;1.13;;
55601;SDS011;59921;51.332;12.410;2023-09-19T01:02:25;1.30;;;1.20;;
55601;SDS011;59921;51.332;12.410;2023-09-19T01:04:55;0.88;;;0.88;;
55601;SDS011;59921;51.332;12.410;2023-09-19T01:07:20;1.27;;;1.10;;
55601;SDS011;59921;51.332;12.410;2023-09-19T01:09:48;1.08;;;0.98;;
55601;SDS011;59921;51.332;12.410;2023-09-19T01:12:15;1.10;;;1.00;;
55601;SDS011;59921;51.332;12.410;2023-09-19T01:14:59;1.20;;;1.10;;
55601;SDS011;59921;51.332;12.410;2023-09-19T01:17:38;1.10;;;1.00;;
55601;SDS011;59921;51.332;12.410;2023-09-19T01:26:32;1.10;;;1.00;;
55601;SDS011;59921;51.332;12.410;2023-09-19T01:32:05;1.10;;;1.00;;
55601;SDS011;59921;51.332;12.410;2023-09-19T01:42:28;1.20;;;0.95;;
55601;SDS011;59921;51.332;12.410;2023-09-19T01:45:11;1.50;;;1.00;;
55601;SDS011;59921;51.332;12.410;2023-09-19T01:47:46;1.08;;;0.88;;
55601;SDS011;59921;51.332;12.410;2023-09-19T01:50:19;0.95;;;0.85;;
55601;SDS011;59921;51.332;12.410;2023-09-19T01:52:51;1.60;;;1.00;;
55601;SDS011;59921;51.332;12.410;2023-09-19T01:55:22;1.17;;;1.00;;
55601;SDS011;59921;51.332;12.410;2023-09-19T01:58:34;1.40;;;1.10;;
55601;SDS011;59921;51.332;12.410;2023-09-19T02:01:01;1.60;;;1.02;;
55601;SDS011;59921;51.332;12.410;2023-09-19T02:03:28;1.17;;;0.90;;
55601;SDS011;59921;51.332;12.410;2023-09-19T02:05:56;1.13;;;1.00;;
55601;SDS011;59921;51.332;12.410;2023-09-19T02:08:21;0.90;;;0.90;;
55601;SDS011;59921;51.332;12.410;2023-09-19T02:10:51;1.48;;;1.05;;
55601;SDS011;59921;51.332;12.410;2023-09-19T02:13:21;1.10;;;0.98;;
55601;SDS011;59921;51.332;12.410;2023-09-19T02:15:51;1.65;;;1.15;;
55601;SDS011;59921;51.332;12.410;2023-09-19T02:18:17;1.20;;;0.90;;
55601;SDS011;59921;51.332;12.410;2023-09-19T02:20:43;1.10;;;1.00;;
55601;SDS011;59921;51.332;12.410;2023-09-19T02:23:09;1.10;;;0.80;;
55601;SDS011;59921;51.332;12.410;2023-09-19T02:25:35;1.20;;;1.10;;
55601;SDS011;59921;51.332;12.410;2023-09-19T02:28:03;1.23;;;1.10;;
55601;SDS011;59921;51.332;12.410;2023-09-19T02:30:30;1.00;;;0.90;;
55601;SDS011;59921;51.332;12.410;2023-09-19T02:32:56;1.13;;;1.00;;
55601;SDS011;59921;51.332;12.410;2023-09-19T02:35:22;1.10;;;1.00;;
55601;SDS011;59921;51.332;12.410;2023-09-19T02:37:48;1.10;;;1.00;;
55601;SDS011;59921;51.332;12.410;2023-09-19T02:40:14;1.13;;;1.00;;
55601;SDS011;59921;51.332;12.410;2023-09-19T02:42:52;1.10;;;1.00;;
55601;SDS011;59921;51.332;12.410;2023-09-19T02:45:19;1.08;;;0.80;;
55601;SDS011;59921;51.332;12.410;2023-09-19T02:47:46;1.13;;;0.93;;
55601;SDS011;59921;51.332;12.410;2023-09-19T02:50:12;1.52;;;1.00;;
55601;SDS011;59921;51.332;12.410;2023-09-19T02:52:41;1.65;;;1.13;;
55601;SDS011;59921;51.332;12.410;2023-09-19T02:55:14;1.58;;;0.98;;
55601;SDS011;59921;51.332;12.410;2023-09-19T02:57:46;1.00;;;0.85;;
55601;SDS011;59921;51.332;12.410;2023-09-19T03:00:12;1.40;;;1.05;;
55601;SDS011;59921;51.332;12.410;2023-09-19T03:02:38;1.10;;;1.00;;
55601;SDS011;59921;51.332;12.410;2023-09-19T03:05:06;0.90;;;0.80;;
55601;SDS011;59921;51.332;12.410;2023-09-19T03:07:32;1.02;;;0.95;;
55601;SDS011;59921;51.332;12.410;2023-09-19T03:09:59;1.10;;;0.90;;
55601;SDS011;59921;51.332;12.410;2023-09-19T03:12:25;1.55;;;1.10;;
55601;SDS011;59921;51.332;12.410;2023-09-19T03:14:51;1.00;;;0.85;;
55601;SDS011;59921;51.332;12.410;2023-09-19T03:17:17;1.23;;;1.00;;
55601;SDS011;59921;51.332;12.410;2023-09-19T03:19:44;0.98;;;0.80;;
55601;SDS011;59921;51.332;12.410;2023-09-19T03:22:10;1.10;;;0.93;;
55601;SDS011;59921;51.332;12.410;2023-09-19T03:24:36;1.00;;;0.90;;
55601;SDS011;59921;51.332;12.410;2023-09-19T03:27:03;1.27;;;1.00;;
55601;SDS011;59921;51.332;12.410;2023-09-19T03:29:29;1.20;;;1.10;;
55601;SDS011;59921;51.332;12.410;2023-09-19T03:31:54;0.88;;;0.88;;
55601;SDS011;59921;51.332;12.410;2023-09-19T03:34:20;1.10;;;0.88;;
55601;SDS011;59921;51.332;12.410;2023-09-19T03:36:46;1.20;;;0.95;;
55601;SDS011;59921;51.332;12.410;2023-09-19T03:39:11;1.15;;;1.00;;
55601;SDS011;59921;51.332;12.410;2023-09-19T03:41:37;1.20;;;1.10;;
55601;SDS011;59921;51.332;12.410;2023-09-19T03:44:04;1.10;;;0.90;;
55601;SDS011;59921;51.332;12.410;2023-09-19T03:46:29;1.23;;;0.95;;
55601;SDS011;59921;51.332;12.410;2023-09-19T03:48:55;1.45;;;1.00;;
55601;SDS011;59921;51.332;12.410;2023-09-19T03:51:21;1.20;;;1.10;;
55601;SDS011;59921;51.332;12.410;2023-09-19T03:53:46;1.48;;;1.13;;
55601;SDS011;59921;51.332;12.410;2023-09-19T03:56:14;1.10;;;1.00;;
55601;SDS011;59921;51.332;12.410;2023-09-19T03:58:40;1.00;;;0.82;;
55601;SDS011;59921;51.332;12.410;2023-09-19T04:01:05;1.00;;;0.90;;
55601;SDS011;59921;51.332;12.410;2023-09-19T04:03:34;1.30;;;1.20;;
55601;SDS011;59921;51.332;12.410;2023-09-19T04:06:10;1.40;;;1.00;;
55601;SDS011;59921;51.332;12.410;2023-09-19T04:08:36;1.17;;;1.00;;
55601;SDS011;59921;51.332;12.410;2023-09-19T04:11:01;1.00;;;0.90;;
55601;SDS011;59921;51.332;12.410;2023-09-19T04:13:27;1.92;;;1.00;;
55601;SDS011;59921;51.332;12.410;2023-09-19T04:15:53;1.00;;;0.90;;
55601;SDS011;59921;51.332;12.410;2023-09-19T04:18:19;1.10;;;1.00;;
55601;SDS011;59921;51.332;12.410;2023-09-19T04:20:51;1.27;;;0.95;;
55601;SDS011;59921;51.332;12.410;2023-09-19T04:23:18;1.02;;;0.93;;
55601;SDS011;59921;51.332;12.410;2023-09-19T04:25:47;1.00;;;0.90;;
55601;SDS011;59921;51.332;12.410;2023-09-19T04:28:13;1.88;;;1.02;;
55601;SDS011;59921;51.332;12.410;2023-09-19T04:30:39;0.80;;;0.80;;
55601;SDS011;59921;51.332;12.410;2023-09-19T04:33:07;1.10;;;1.00;;
55601;SDS011;59921;51.332;12.410;2023-09-19T04:35:33;1.30;;;1.13;;
55601;SDS011;59921;51.332;12.410;2023-09-19T04:38:00;1.30;;;0.77;;
55601;SDS011;59921;51.332;12.410;2023-09-19T04:40:26;1.05;;;0.90;;
55601;SDS011;59921;51.332;12.410;2023-09-19T04:42:55;1.08;;;0.77;;
55601;SDS011;59921;51.332;12.410;2023-09-19T04:45:24;0.90;;;0.80;;
55601;SDS011;59921;51.332;12.410;2023-09-19T04:47:49;1.10;;;1.00;;
55601;SDS011;59921;51.332;12.410;2023-09-19T04:50:15;1.00;;;0.90;;
55601;SDS011;59921;51.332;12.410;2023-09-19T04:52:43;1.00;;;0.90;;
55601;SDS011;59921;51.332;12.410;2023-09-19T04:55:11;1.10;;;1.00;;
55601;SDS011;59921;51.332;12.410;2023-09-19T04:57:44;0.98;;;0.80;;
55601;SDS011;59921;51.332;12.410;2023-09-19T05:00:12;1.38;;;0.82;;
55601;SDS011;59921;51.332;12.410;2023-09-19T05:02:42;1.02;;;0.93;;
55601;SDS011;59921;51.332;12.410;2023-09-19T05:05:08;0.98;;;0.80;;
55601;SDS011;59921;51.332;12.410;2023-09-19T05:07:36;1.10;;;0.90;;
55601;SDS011;59921;51.332;12.410;2023-09-19T05:10:02;1.00;;;0.90;;
55601;SDS011;59921;51.332;12.410;2023-09-19T05:12:31;1.10;;;0.90;;
55601;SDS011;59921;51.332;12.410;2023-09-19T05:14:57;1.60;;;1.05;;
55601;SDS011;59921;51.332;12.410;2023-09-19T05:17:23;1.27;;;1.02;;
55601;SDS011;59921;51.332;12.410;2023-09-19T05:19:49;1.10;;;0.93;;
55601;SDS011;59921;51.332;12.410;2023-09-19T05:22:15;1.38;;;1.10;;
55601;SDS011;59921;51.332;12.410;2023-09-19T05:24:40;0.88;;;0.80;;
55601;SDS011;59921;51.332;12.410;2023-09-19T05:27:06;1.30;;;0.98;;
55601;SDS011;59921;51.332;12.410;2023-09-19T05:29:32;1.30;;;1.10;;
55601;SDS011;59921;51.332;12.410;2023-09-19T05:31:58;1.00;;;0.90;;
55601;SDS011;59921;51.332;12.410;2023-09-19T05:34:24;1.00;;;0.85;;
55601;SDS011;59921;51.332;12.410;2023-09-19T05:36:55;1.25;;;0.98;;
55601;SDS011;59921;51.332;12.410;2023-09-19T05:39:20;1.25;;;1.02;;
55601;SDS011;59921;51.332;12.410;2023-09-19T05:41:46;1.27;;;1.00;;
55601;SDS011;59921;51.332;12.410;2023-09-19T05:44:12;1.25;;;1.00;;
55601;SDS011;59921;51.332;12.410;2023-09-19T05:46:39;1.02;;;0.82;;
55601;SDS011;59921;51.332;12.410;2023-09-19T05:49:05;0.80;;;0.80;;
55601;SDS011;59921;51.332;12.410;2023-09-19T05:51:30;1.00;;;0.90;;
55601;SDS011;59921;51.332;12.410;2023-09-19T05:53:56;1.33;;;0.90;;
55601;SDS011;59921;51.332;12.410;2023-09-19T05:56:23;1.17;;;1.00;;
55601;SDS011;59921;51.332;12.410;2023-09-19T05:58:48;1.17;;;0.90;;
55601;SDS011;59921;51.332;12.410;2023-09-19T06:01:14;1.23;;;1.00;;
55601;SDS011;59921;51.332;12.410;2023-09-19T06:03:40;1.33;;;1.02;;
55601;SDS011;59921;51.332;12.410;2023-09-19T06:06:05;1.13;;;0.90;;
55601;SDS011;59921;51.332;12.410;2023-09-19T06:08:32;1.25;;;1.00;;
55601;SDS011;59921;51.332;12.410;2023-09-19T06:10:59;1.80;;;0.80;;
55601;SDS011;59921;51.332;12.410;2023-09-19T06:13:24;2.08;;;0.95;;
55601;SDS011;59921;51.332;12.410;2023-09-19T06:15:52;2.33;;;1.10;;
55601;SDS011;59921;51.332;12.410;2023-09-19T06:18:17;13.23;;;1.90;;
55601;SDS011;59921;51.332;12.410;2023-09-19T06:20:46;5.97;;;1.40;;
55601;SDS011;59921;51.332;12.410;2023-09-19T06:23:12;7.30;;;1.65;;
55601;SDS011;59921;51.332;12.410;2023-09-19T06:25:38;4.65;;;1.30;;
55601;SDS011;59921;51.332;12.410;2023-09-19T06:28:04;3.67;;;1.30;;
55601;SDS011;59921;51.332;12.410;2023-09-19T06:30:30;4.65;;;1.40;;
55601;SDS011;59921;51.332;12.410;2023-09-19T06:32:56;3.75;;;1.40;;
55601;SDS011;59921;51.332;12.410;2023-09-19T06:35:22;3.92;;;1.30;;
55601;SDS011;59921;51.332;12.410;2023-09-19T06:37:48;7.97;;;1.58;;
55601;SDS011;59921;51.332;12.410;2023-09-19T06:40:14;3.80;;;1.20;;
55601;SDS011;59921;51.332;12.410;2023-09-19T06:42:44;3.75;;;1.15;;
55601;SDS011;59921;51.332;12.410;2023-09-19T06:45:11;5.03;;;1.38;;
55601;SDS011;59921;51.332;12.410;2023-09-19T06:47:42;5.93;;;1.40;;
55601;SDS011;59921;51.332;12.410;2023-09-19T06:50:08;4.88;;;1.10;;
55601;SDS011;59921;51.332;12.410;2023-09-19T06:52:34;4.88;;;1.70;;
55601;SDS011;59921;51.332;12.410;2023-09-19T06:55:00;3.05;;;1.33;;
55601;SDS011;59921;51.332;12.410;2023-09-19T06:57:28;5.15;;;1.20;;
55601;SDS011;59921;51.332;12.410;2023-09-19T06:59:55;3.97;;;1.25;;
55601;SDS011;59921;51.332;12.410;2023-09-19T07:02:21;3.78;;;1.20;;
55601;SDS011;59921;51.332;12.410;2023-09-19T07:04:47;4.07;;;1.30;;
55601;SDS011;59921;51.332;12.410;2023-09-19T07:07:12;3.35;;;1.05;;
55601;SDS011;59921;51.332;12.410;2023-09-19T07:09:39;2.28;;;0.98;;
55601;SDS011;59921;51.332;12.410;2023-09-19T07:12:04;4.13;;;1.23;;
55601;SDS011;59921;51.332;12.410;2023-09-19T07:14:30;2.25;;;1.00;;
55601;SDS011;59921;51.332;12.410;2023-09-19T07:16:57;4.70;;;1.50;;
55601;SDS011;59921;51.332;12.410;2023-09-19T07:19:25;4.25;;;1.40;;
55601;SDS011;59921;51.332;12.410;2023-09-19T07:21:53;3.42;;;1.17;;
55601;SDS011;59921;51.332;12.410;2023-09-19T07:24:19;3.15;;;1.20;;
55601;SDS011;59921;51.332;12.410;2023-09-19T07:26:45;2.85;;;1.20;;
55601;SDS011;59921;51.332;12.410;2023-09-19T07:29:11;2.40;;;1.02;;
55601;SDS011;59921;51.332;12.410;2023-09-19T07:31:36;2.33;;;1.25;;
55601;SDS011;59921;51.332;12.410;2023-09-19T07:34:01;4.47;;;1.20;;
55601;SDS011;59921;51.332;12.410;2023-09-19T07:36:29;2.80;;;1.17;;
55601;SDS011;59921;51.332;12.410;2023-09-19T07:38:55;3.13;;;1.23;;
55601;SDS011;59921;51.332;12.410;2023-09-19T07:41:23;2.42;;;1.15;;
55601;SDS011;59921;51.332;12.410;2023-09-19T07:43:49;2.28;;;0.90;;
55601;SDS011;59921;51.332;12.410;2023-09-19T07:46:15;2.72;;;1.08;;
55601;SDS011;59921;51.332;12.410;2023-09-19T07:48:40;2.22;;;1.02;;
55601;SDS011;59921;51.332;12.410;2023-09-19T07:51:12;2.22;;;1.00;;
55601;SDS011;59921;51.332;12.410;2023-09-19T07:53:41;2.40;;;1.05;;
55601;SDS011;59921;51.332;12.410;2023-09-19T07:56:08;1.90;;;1.00;;
55601;SDS011;59921;51.332;12.410;2023-09-19T07:58:34;2.35;;;1.00;;
55601;SDS011;59921;51.332;12.410;2023-09-19T08:01:05;3.03;;;0.90;;
55601;SDS011;59921;51.332;12.410;2023-09-19T08:03:32;1.55;;;1.00;;
55601;SDS011;59921;51.332;12.410;2023-09-19T08:05:58;2.15;;;1.10;;
55601;SDS011;59921;51.332;12.410;2023-09-19T08:08:23;2.35;;;1.05;;
55601;SDS011;59921;51.332;12.410;2023-09-19T08:10:52;3.17;;;0.90;;
55601;SDS011;59921;51.332;12.410;2023-09-19T08:13:20;2.85;;;1.20;;
55601;SDS011;59921;51.332;12.410;2023-09-19T08:15:46;2.17;;;1.08;;
55601;SDS011;59921;51.332;12.410;2023-09-19T08:18:13;1.90;;;1.08;;
55601;SDS011;59921;51.332;12.410;2023-09-19T08:20:39;2.42;;;1.00;;
55601;SDS011;59921;51.332;12.410;2023-09-19T08:23:07;1.80;;;1.00;;
55601;SDS011;59921;51.332;12.410;2023-09-19T08:25:33;1.77;;;0.90;;
55601;SDS011;59921;51.332;12.410;2023-09-19T08:27:59;1.73;;;1.10;;
55601;SDS011;59921;51.332;12.410;2023-09-19T08:30:27;2.25;;;0.80;;
55601;SDS011;59921;51.332;12.410;2023-09-19T08:32:58;1.80;;;1.00;;
55601;SDS011;59921;51.332;12.410;2023-09-19T08:35:24;1.48;;;0.90;;
55601;SDS011;59921;51.332;12.410;2023-09-19T08:37:50;2.35;;;1.00;;
55601;SDS011;59921;51.332;12.410;2023-09-19T08:40:16;2.63;;;1.13;;
55601;SDS011;59921;51.332;12.410;2023-09-19T08:42:55;2.00;;;1.00;;
55601;SDS011;59921;51.332;12.410;2023-09-19T08:45:21;2.55;;;1.20;;
55601;SDS011;59921;51.332;12.410;2023-09-19T08:48:31;2.33;;;0.90;;
55601;SDS011;59921;51.332;12.410;2023-09-19T08:50:49;1.92;;;1.00;;
55601;SDS011;59921;51.332;12.410;2023-09-19T08:53:21;1.75;;;0.80;;
55601;SDS011;59921;51.332;12.410;2023-09-19T08:55:52;2.72;;;1.00;;
55601;SDS011;59921;51.332;12.410;2023-09-19T08:58:21;1.85;;;0.82;;
55601;SDS011;59921;51.332;12.410;2023-09-19T09:00:49;2.00;;;1.00;;
55601;SDS011;59921;51.332;12.410;2023-09-19T09:03:16;2.72;;;1.10;;
55601;SDS011;59921;51.332;12.410;2023-09-19T09:05:46;2.35;;;1.00;;
55601;SDS011;59921;51.332;12.410;2023-09-19T09:08:14;1.77;;;0.88;;
55601;SDS011;59921;51.332;12.410;2023-09-19T09:10:40;2.25;;;1.35;;
55601;SDS011;59921;51.332;12.410;2023-09-19T09:13:05;1.77;;;1.10;;
55601;SDS011;59921;51.332;12.410;2023-09-19T09:15:31;2.35;;;0.90;;
55601;SDS011;59921;51.332;12.410;2023-09-19T09:18:00;2.47;;;0.90;;
55601;SDS011;59921;51.332;12.410;2023-09-19T09:20:28;1.55;;;1.00;;
55601;SDS011;59921;51.332;12.410;2023-09-19T09:22:54;2.50;;;1.00;;
55601;SDS011;59921;51.332;12.410;2023-09-19T09:25:23;1.30;;;0.90;;
55601;SDS011;59921;51.332;12.410;2023-09-19T09:28:12;2.22;;;0.88;;
55601;SDS011;59921;51.332;12.410;2023-09-19T09:30:44;1.08;;;0.80;;
55601;SDS011;59921;51.332;12.410;2023-09-19T09:33:11;1.23;;;0.80;;
55601;SDS011;59921;51.332;12.410;2023-09-19T09:35:50;1.10;;;0.90;;
55601;SDS011;59921;51.332;12.410;2023-09-19T09:38:17;1.10;;;0.70;;
55601;SDS011;59921;51.332;12.410;2023-09-19T09:40:50;1.88;;;0.90;;
55601;SDS011;59921;51.332;12.410;2023-09-19T09:43:52;0.98;;;0.80;;
55601;SDS011;59921;51.332;12.410;2023-09-19T09:46:20;1.83;;;0.90;;
55601;SDS011;59921;51.332;12.410;2023-09-19T09:48:47;1.52;;;1.00;;
55601;SDS011;59921;51.332;12.410;2023-09-19T09:51:36;1.25;;;0.82;;
55601;SDS011;59921;51.332;12.410;2023-09-19T09:54:13;1.13;;;1.00;;
55601;SDS011;59921;51.332;12.410;2023-09-19T09:56:55;1.55;;;0.70;;
55601;SDS011;59921;51.332;12.410;2023-09-19T09:59:43;1.05;;;0.80;;
55601;SDS011;59921;51.332;12.410;2023-09-19T10:02:13;1.50;;;0.60;;
55601;SDS011;59921;51.332;12.410;2023-09-19T10:04:44;1.15;;;0.82;;
55601;SDS011;59921;51.332;12.410;2023-09-19T10:07:26;1.02;;;0.80;;
55601;SDS011;59921;51.332;12.410;2023-09-19T10:09:57;0.98;;;0.80;;
55601;SDS011;59921;51.332;12.410;2023-09-19T10:15:11;1.88;;;0.95;;
55601;SDS011;59921;51.332;12.410;2023-09-19T10:17:44;1.35;;;0.70;;
55601;SDS011;59921;51.332;12.410;2023-09-19T10:20:14;1.50;;;0.90;;
55601;SDS011;59921;51.332;12.410;2023-09-19T10:23:04;1.30;;;0.70;;
55601;SDS011;59921;51.332;12.410;2023-09-19T10:25:36;1.45;;;0.80;;
55601;SDS011;59921;51.332;12.410;2023-09-19T10:28:03;1.48;;;0.80;;
55601;SDS011;59921;51.332;12.410;2023-09-19T10:30:36;1.30;;;0.80;;
55601;SDS011;59921;51.332;12.410;2023-09-19T10:33:05;1.42;;;0.70;;
55601;SDS011;59921;51.332;12.410;2023-09-19T10:35:32;1.20;;;0.90;;
55601;SDS011;59921;51.332;12.410;2023-09-19T10:38:01;1.30;;;0.82;;
55601;SDS011;59921;51.332;12.410;2023-09-19T10:40:29;1.42;;;0.77;;
55601;SDS011;59921;51.332;12.410;2023-09-19T10:43:01;1.05;;;0.80;;
55601;SDS011;59921;51.332;12.410;2023-09-19T10:45:30;1.35;;;0.90;;
55601;SDS011;59921;51.332;12.410;2023-09-19T10:48:03;1.55;;;0.98;;
55601;SDS011;59921;51.332;12.410;2023-09-19T10:50:31;1.00;;;0.68;;
55601;SDS011;59921;51.332;12.410;2023-09-19T10:53:02;1.25;;;0.80;;
55601;SDS011;59921;51.332;12.410;2023-09-19T10:55:33;1.25;;;0.90;;
55601;SDS011;59921;51.332;12.410;2023-09-19T10:58:00;1.20;;;0.90;;
55601;SDS011;59921;51.332;12.410;2023-09-19T11:00:29;1.00;;;0.80;;
55601;SDS011;59921;51.332;12.410;2023-09-19T11:05:40;1.10;;;0.90;;
55601;SDS011;59921;51.332;12.410;2023-09-19T11:08:07;1.00;;;0.73;;
55601;SDS011;59921;51.332;12.410;2023-09-19T11:10:49;0.88;;;0.68;;
55601;SDS011;59921;51.332;12.410;2023-09-19T11:13:26;1.15;;;0.80;;
55601;SDS011;59921;51.332;12.410;2023-09-19T11:26:44;1.38;;;0.80;;
55601;SDS011;59921;51.332;12.410;2023-09-19T11:29:33;1.55;;;1.00;;
55601;SDS011;59921;51.332;12.410;2023-09-19T11:31:58;1.30;;;0.73;;
55601;SDS011;59921;51.332;12.410;2023-09-19T11:37:02;1.48;;;0.65;;
55601;SDS011;59921;51.332;12.410;2023-09-19T11:39:40;0.95;;;0.60;;
55601;SDS011;59921;51.332;12.410;2023-09-19T11:42:44;1.02;;;0.73;;
55601;SDS011;59921;51.332;12.410;2023-09-19T11:48:06;1.55;;;0.85;;
55601;SDS011;59921;51.332;12.410;2023-09-19T11:50:33;1.05;;;0.65;;
55601;SDS011;59921;51.332;12.410;2023-09-19T11:53:01;1.05;;;0.85;;
55601;SDS011;59921;51.332;12.410;2023-09-19T11:55:30;0.88;;;0.80;;
55601;SDS011;59921;51.332;12.410;2023-09-19T11:57:57;0.80;;;0.77;;
55601;SDS011;59921;51.332;12.410;2023-09-19T12:00:24;0.65;;;0.63;;
55601;SDS011;59921;51.332;12.410;2023-09-19T12:02:53;0.95;;;0.80;;
55601;SDS011;59921;51.332;12.410;2023-09-19T12:05:30;0.98;;;0.80;;
55601;SDS011;59921;51.332;12.410;2023-09-19T12:07:58;0.93;;;0.82;;
55601;SDS011;59921;51.332;12.410;2023-09-19T12:10:24;0.98;;;0.80;;
55601;SDS011;59921;51.332;12.410;2023-09-19T12:12:50;1.00;;;0.70;;
55601;SDS011;59921;51.332;12.410;2023-09-19T12:15:23;1.00;;;0.65;;
55601;SDS011;59921;51.332;12.410;2023-09-19T12:17:54;0.82;;;0.70;;
55601;SDS011;59921;51.332;12.410;2023-09-19T12:20:22;1.73;;;0.70;;
55601;SDS011;59921;51.332;12.410;2023-09-19T12:22:48;0.60;;;0.60;;
55601;SDS011;59921;51.332;12.410;2023-09-19T12:25:14;0.80;;;0.63;;
55601;SDS011;59921;51.332;12.410;2023-09-19T12:30:09;1.13;;;0.63;;
55601;SDS011;59921;51.332;12.410;2023-09-19T12:32:39;0.80;;;0.68;;
55601;SDS011;59921;51.332;12.410;2023-09-19T12:35:08;0.77;;;0.70;;
55601;SDS011;59921;51.332;12.410;2023-09-19T12:37:36;1.02;;;0.70;;
55601;SDS011;59921;51.332;12.410;2023-09-19T12:40:06;0.95;;;0.65;;
55601;SDS011;59921;51.332;12.410;2023-09-19T12:42:45;0.82;;;0.70;;
55601;SDS011;59921;51.332;12.410;2023-09-19T12:45:12;1.05;;;0.80;;
55601;SDS011;59921;51.332;12.410;2023-09-19T12:47:40;0.85;;;0.60;;
55601;SDS011;59921;51.332;12.410;2023-09-19T12:50:26;0.95;;;0.70;;
55601;SDS011;59921;51.332;12.410;2023-09-19T12:52:55;1.00;;;0.77;;
55601;SDS011;59921;51.332;12.410;2023-09-19T12:55:26;0.80;;;0.70;;
55601;SDS011;59921;51.332;12.410;2023-09-19T13:00:44;0.95;;;0.68;;
55601;SDS011;59921;51.332;12.410;2023-09-19T13:03:14;0.90;;;0.70;;
55601;SDS011;59921;51.332;12.410;2023-09-19T13:08:24;0.57;;;0.57;;
55601;SDS011;59921;51.332;12.410;2023-09-19T13:11:04;1.38;;;0.60;;
55601;SDS011;59921;51.332;12.410;2023-09-19T13:13:32;0.80;;;0.60;;
55601;SDS011;59921;51.332;12.410;2023-09-19T13:15:58;0.70;;;0.60;;
55601;SDS011;59921;51.332;12.410;2023-09-19T13:18:26;0.73;;;0.70;;
55601;SDS011;59921;51.332;12.410;2023-09-19T13:21:11;1.10;;;0.77;;
55601;SDS011;59921;51.332;12.410;2023-09-19T13:23:41;0.82;;;0.70;;
55601;SDS011;59921;51.332;12.410;2023-09-19T13:26:09;0.85;;;0.70;;
55601;SDS011;59921;51.332;12.410;2023-09-19T13:28:37;0.90;;;0.60;;
55601;SDS011;59921;51.332;12.410;2023-09-19T13:31:03;0.60;;;0.50;;
55601;SDS011;59921;51.332;12.410;2023-09-19T13:33:28;0.77;;;0.60;;
55601;SDS011;59921;51.332;12.410;2023-09-19T13:35:54;1.17;;;0.93;;
55601;SDS011;59921;51.332;12.410;2023-09-19T13:38:22;1.23;;;0.82;;
55601;SDS011;59921;51.332;12.410;2023-09-19T13:40:48;0.70;;;0.70;;
55601;SDS011;59921;51.332;12.410;2023-09-19T13:43:18;1.00;;;0.70;;
55601;SDS011;59921;51.332;12.410;2023-09-19T13:45:43;1.05;;;0.70;;
55601;SDS011;59921;51.332;12.410;2023-09-19T13:48:09;0.90;;;0.68;;
55601;SDS011;59921;51.332;12.410;2023-09-19T13:50:36;0.60;;;0.60;;
55601;SDS011;59921;51.332;12.410;2023-09-19T13:53:07;0.75;;;0.50;;
55601;SDS011;59921;51.332;12.410;2023-09-19T13:55:33;0.70;;;0.70;;
55601;SDS011;59921;51.332;12.410;2023-09-19T13:58:01;0.85;;;0.80;;
55601;SDS011;59921;51.332;12.410;2023-09-19T14:00:27;0.80;;;0.60;;
55601;SDS011;59921;51.332;12.410;2023-09-19T14:02:52;1.00;;;0.70;;
55601;SDS011;59921;51.332;12.410;2023-09-19T14:05:18;1.40;;;0.65;;
55601;SDS011;59921;51.332;12.410;2023-09-19T14:07:45;0.82;;;0.60;;
55601;SDS011;59921;51.332;12.410;2023-09-19T14:10:11;0.60;;;0.60;;
55601;SDS011;59921;51.332;12.410;2023-09-19T14:12:37;1.15;;;0.60;;
55601;SDS011;59921;51.332;12.410;2023-09-19T14:15:06;1.20;;;0.63;;
55601;SDS011;59921;51.332;12.410;2023-09-19T14:17:33;0.82;;;0.70;;
55601;SDS011;59921;51.332;12.410;2023-09-19T14:19:59;1.27;;;0.60;;
55601;SDS011;59921;51.332;12.410;2023-09-19T14:22:24;1.00;;;0.68;;
55601;SDS011;59921;51.332;12.410;2023-09-19T14:24:50;0.70;;;0.70;;
55601;SDS011;59921;51.332;12.410;2023-09-19T14:27:16;1.00;;;0.70;;
55601;SDS011;59921;51.332;12.410;2023-09-19T14:29:42;0.85;;;0.70;;
55601;SDS011;59921;51.332;12.410;2023-09-19T14:32:07;1.00;;;0.70;;
55601;SDS011;59921;51.332;12.410;2023-09-19T14:34:33;1.13;;;0.70;;
55601;SDS011;59921;51.332;12.410;2023-09-19T14:36:58;0.85;;;0.77;;
55601;SDS011;59921;51.332;12.410;2023-09-19T14:39:24;0.75;;;0.75;;
55601;SDS011;59921;51.332;12.410;2023-09-19T14:41:53;0.80;;;0.70;;
55601;SDS011;59921;51.332;12.410;2023-09-19T14:44:19;0.70;;;0.70;;
55601;SDS011;59921;51.332;12.410;2023-09-19T14:46:44;0.82;;;0.63;;
55601;SDS011;59921;51.332;12.410;2023-09-19T14:49:11;1.15;;;0.75;;
55601;SDS011;59921;51.332;12.410;2023-09-19T14:51:37;1.42;;;0.52;;
55601;SDS011;59921;51.332;12.410;2023-09-19T14:54:05;1.02;;;0.70;;
55601;SDS011;59921;51.332;12.410;2023-09-19T14:56:32;1.08;;;0.60;;
55601;SDS011;59921;51.332;12.410;2023-09-19T14:58:58;0.68;;;0.60;;
55601;SDS011;59921;51.332;12.410;2023-09-19T15:01:24;0.82;;;0.70;;
55601;SDS011;59921;51.332;12.410;2023-09-19T15:03:50;0.82;;;0.70;;
55601;SDS011;59921;51.332;12.410;2023-09-19T15:06:15;0.70;;;0.60;;
55601;SDS011;59921;51.332;12.410;2023-09-19T15:08:42;0.68;;;0.65;;
55601;SDS011;59921;51.332;12.410;2023-09-19T15:11:15;0.52;;;0.52;;
55601;SDS011;59921;51.332;12.410;2023-09-19T15:13:46;1.25;;;0.68;;
55601;SDS011;59921;51.332;12.410;2023-09-19T15:16:12;0.88;;;0.70;;
55601;SDS011;59921;51.332;12.410;2023-09-19T15:18:42;0.77;;;0.50;;
55601;SDS011;59921;51.332;12.410;2023-09-19T15:21:11;0.82;;;0.68;;
55601;SDS011;59921;51.332;12.410;2023-09-19T15:23:37;0.63;;;0.57;;
55601;SDS011;59921;51.332;12.410;2023-09-19T15:26:04;0.70;;;0.70;;
55601;SDS011;59921;51.332;12.410;2023-09-19T15:28:30;0.80;;;0.70;;